• Join FlightAware (Why Join?)
  • Login
  • US Flag 
03:00AM EDT


 

Airport Tracker/Info


-or-


 

Live Flight TrackerFlight Track Log ✈ GJS3649 ✈ 27-Jun-2013 ✈ KORD - KRDU

Flight Track Log - Related Links

Times and Time Zones

All times are in EDT time to prevent confusion due to time zone crossing. See the GJS3649 flight status page for this flight to view local times or setup timezone preferences in your user account.

Time Position Orientation Groundspeed Altitude Reporting Facility
EDT Latitude Longitude Course Direction KTS MPH feet Rate Location/Type
12:31AM 41.9333 -87.9000 169° South 192 221 2,200  Level Chicago TRACON
12:32AM 41.8667 -87.8833 169° South 243 280 4,400 1,980 Climbing Chicago TRACON
12:32AM 41.8056 -87.8806 178° South 268 308 6,100 2,160 Climbing Chicago Center
12:33AM 41.7239 -87.8700 174° South 289 333 8,700 2,400 Climbing Chicago Center
12:35AM 41.6389 -87.8544 172° South 304 350 11,000 1,980 Climbing Chicago Center
12:36AM 41.5664 -87.7767 141° Southeast 339 390 12,800 1,080 Climbing Chicago Center
12:37AM 41.4703 -87.7097 152° Southeast 384 442 13,300 960 Climbing Chicago Center
12:38AM 41.3561 -87.6678 165° South 409 471 14,800 1,500 Climbing Chicago Center
12:39AM 41.2161 -87.6136 164° South 425 489 16,400 1,680 Climbing Chicago Center
12:40AM 41.0953 -87.5694 165° South 442 509 18,300 1,500 Climbing Chicago Center
12:41AM 40.9758 -87.5256 164° South 446 513 19,500 780 Climbing Chicago Center
12:42AM 40.8517 -87.4772 164° South 458 527 20,000 600 Climbing Chicago Center
12:43AM 40.7203 -87.4333 166° South 482 555 20,800 840 Climbing Chicago Center
12:44AM 40.5900 -87.3856 164° South 487 560 21,800 840 Climbing Chicago Center
12:45AM 40.4600 -87.3364 164° South 487 560 22,600 780 Climbing Chicago Center
12:46AM 40.3394 -87.2278 146° Southeast 508 585 23,500 780 Climbing Chicago Center
12:47AM 40.2239 -87.1192 144° Southeast 513 590 24,300 780 Climbing Chicago Center
12:48AM 40.1067 -87.0111 145° Southeast 516 594 25,100 780 Climbing Chicago Center
12:49AM 39.9883 -86.9028 145° Southeast 519 597 25,900 780 Climbing Chicago Center
12:50AM 39.8653 -86.8022 148° Southeast 523 602 26,700 720 Climbing Chicago Center
12:51AM 39.7417 -86.7031 148° Southeast 527 606 27,400 720 Climbing Chicago Center
12:52AM 39.6411 -86.5167 125° Southeast 538 619 28,200 780 Climbing Chicago Center
12:53AM 39.5692 -86.3503 119° Southeast 541 623 29,000 660 Climbing Chicago Center
12:54AM 39.4956 -86.1825 120° Southeast 545 627 29,600 540 Climbing Chicago Center
12:55AM 39.4222 -86.0142 119° Southeast 545 627 30,100 480 Climbing Chicago Center
12:56AM 39.3469 -85.8456 120° Southeast 545 627 30,600 480 Climbing Chicago Center
12:57AM 39.2717 -85.6750 120° Southeast 547 629 31,100 480 Climbing Chicago Center
12:58AM 39.1806 -85.4711 120° Southeast 551 634 31,700 480 Climbing Indianapolis Center
12:59AM 39.1033 -85.3006 120° Southeast 553 636 32,200 480 Climbing Indianapolis Center
01:00AM 39.0272 -85.1306 120° Southeast 552 635 32,700 540 Climbing Indianapolis Center
01:01AM 38.9492 -84.9614 121° Southeast 551 634 33,300 540 Climbing Indianapolis Center
01:02AM 38.8742 -84.7947 120° Southeast 543 625 33,900 540 Climbing Indianapolis Center
01:03AM 38.7997 -84.6272 120° Southeast 544 626 34,500 600 Climbing Indianapolis Center
01:04AM 38.7094 -84.4422 122° Southeast 541 623 35,200 600 Climbing Indianapolis Center
01:05AM 38.6439 -84.2706 116° Southeast 536 617 35,800 540 Climbing Indianapolis Center
01:06AM 38.5947 -84.0942 110° East 527 606 36,400 540 Climbing Indianapolis Center
01:07AM 38.5500 -83.9125 107° East 530 610 37,000 540 Climbing Indianapolis Center
01:08AM 38.5031 -83.7364 109° East 526 605 37,600 600 Climbing Indianapolis Center
01:09AM 38.4564 -83.5628 109° East 520 598 38,300 600 Climbing Indianapolis Center
01:10AM 38.4103 -83.3908 109° East 513 590 38,900 300 Climbing Indianapolis Center
01:11AM 38.3653 -83.2192 108° East 510 587 39,000  Climbing Indianapolis Center
01:12AM 38.3144 -83.0467 111° Southeast 517 595 39,000  Level Indianapolis Center
01:13AM 38.2344 -82.8933 124° Southeast 519 597 39,000  Level Indianapolis Center
01:14AM 38.1528 -82.7428 125° Southeast 516 594 39,000  Level Indianapolis Center
01:15AM 38.0719 -82.5961 125° Southeast 507 583 39,000  Level Indianapolis Center
01:16AM 37.9917 -82.4461 124° Southeast 509 586 39,000  Level Indianapolis Center
01:17AM 37.9106 -82.2989 125° Southeast 508 585 39,000  Level Indianapolis Center
01:18AM 37.8281 -82.1500 125° Southeast 513 590 39,000  Level Indianapolis Center
01:19AM 37.7483 -82.0047 125° Southeast 505 581 39,000  Level Indianapolis Center
01:20AM 37.6669 -81.8589 125° Southeast 506 582 39,000  Level Indianapolis Center
01:21AM 37.5856 -81.7156 126° Southeast 503 579 39,000  Level Indianapolis Center
01:22AM 37.5058 -81.5708 125° Southeast 501 577 39,000  Level Indianapolis Center
01:23AM 37.4169 -81.4142 126° Southeast 500 575 39,000  Level Indianapolis Center
01:24AM 37.3378 -81.2769 126° Southeast 500 575 39,000  Level Indianapolis Center
01:25AM 37.2597 -81.1397 126° Southeast 499 574 39,000 -60 Level Indianapolis Center
01:26AM 37.1819 -81.0036 126° Southeast 496 571 38,900 -960 Descending Indianapolis Center
01:27AM 37.1039 -80.8669 126° Southeast 497 572 37,100 -2,100 Descending Indianapolis Center
01:28AM 37.0072 -80.6969 125° Southeast 514 592 34,700 -2,340 Descending Indianapolis Center
01:29AM 36.9244 -80.5536 126° Southeast 522 601 32,500 -2,160 Descending Indianapolis Center
01:30AM 36.8406 -80.4100 126° Southeast 526 605 30,400 -2,100 Descending Indianapolis Center
01:31AM 36.7578 -80.2683 126° Southeast 522 601 28,300 -2,160 Descending Indianapolis Center
01:32AM 36.6786 -80.1300 125° Southeast 508 585 26,100 -2,340 Descending Indianapolis Center
01:33AM 36.5892 -79.9772 126° Southeast 475 547 23,600 -2,280 Descending Indianapolis Center
01:35AM 36.4767 -79.7922 127° Southeast 487 560 20,600 -2,220 Descending Washington Center
01:36AM 36.4019 -79.6617 125° Southeast 479 551 18,400 -2,340 Descending Washington Center
01:37AM 36.3328 -79.5472 127° Southeast 441 507 16,000 -2,340 Descending Washington Center
01:38AM 36.2575 -79.4250 127° Southeast 377 434 13,400 -1,500 Descending Washington Center
01:39AM 36.2100 -79.3375 124° Southeast 375 432 13,000 -720 Descending Washington Center
01:40AM 36.1528 -79.2344 124° Southeast 366 421 12,100 -1,440 Descending Washington Center
01:41AM 36.1142 -79.1325 115° Southeast 343 395 10,200 -1,440 Descending Washington Center
01:42AM 36.0853 -79.0542 115° Southeast 308 354 9,300 -2,040 Descending Washington Center
01:43AM 36.0561 -78.9731 114° Southeast 277 319 6,300 -2,880 Descending Washington Center
01:44AM 36.0272 -78.8897 113° Southeast 262 302 3,700 -1,680 Descending Washington Center
01:45AM 36.0019 -78.8244 116° Southeast 240 276 2,900 -900 Descending Washington Center
01:46AM 35.9786 -78.7619 115° Southeast 210 242 2,000 -600 Descending Washington Center
01:47AM 35.9311 -78.7344 155° Southeast 147 169 1,600 -540 Descending Washington Center
01:48AM 35.9053 -78.7642 223° Southwest 119 137 900 -720 Descending Washington Center
01:50AM 35.8776 -78.7875 133° Southeast  Level Estimated
01:57AM 35.8776 -78.7875 133° Southeast  Level Estimated